x

Stennis Test Facility (ostf1) Weather Station

8:50pm - Fri 29th Apr 2016 All times are CDT. -5 hours from GMT.

  • Wind
    2mph, 7mph gusts
  • Air Temp 75°f
  • Sea Pressure 1011.5mb
  • Stennis Test Facility
  • Stennis Test Facility

More Historic Weather Station data

Upgrade to MSW Pro to gain access to the past 30 days of data for over 8000 Wavebouys and Weather Stations around the globe.

Join Pro

Comparision Forecast

View Surf forecast
   
Fri 04/29 8:50pm 2 7 mph 1011.5mb 75f
7:50pm 4 7 mph 1011.8mb 76f
6:50pm 4 9 mph 1011.6mb 78f
5:50pm 4 9 mph 1011.7mb 79f
4:50pm 7 11 mph 1011.6mb 81f
3:50pm 7 13 mph 1012mb 81f
2:50pm 9 16 mph 1013.1mb 82f
1:50pm 9 13 mph 1013.2mb 81f
12:50pm 9 18 mph 1013.2mb 82f
11:50am 11 16 mph 1014.4mb 80f
10:50am 9 16 mph 1014.8mb 79f
9:50am 7 11 mph 1014.6mb 77f
8:50am 7 13 mph 1014.4mb 75f
7:50am 2 7 mph 1014.4mb 73f
6:50am  -  2 mph 1014mb 71f
5:50am  -  2 mph 1013.4mb 70f
4:50am  -  4 mph 1013.3mb 69f
3:50am  -  2 mph 1013.4mb 68f
2:50am  -  mph 1013.6mb 67f
1:50am  -  mph 1013.8mb 68f
12:50am  -  mph 1013.8mb 68f
Thu 04/28 11:50pm  -  mph 1014.1mb 69f
10:50pm  -  2 mph 1014.2mb 70f
9:50pm  -  mph 1014.5mb 72f
8:50pm  -  4 mph 1014.4mb 74f
7:50pm 2 4 mph 1014mb 74f
6:50pm 4 7 mph 1014mb 75f
5:50pm 4 11 mph 1013.8mb 76f
4:50pm 7 11 mph 1013.3mb 76f
3:50pm 7 11 mph 1013.4mb 80f
2:50pm 9 13 mph 1013.7mb 80f
1:50pm 9 13 mph 1013.9mb 78f
12:50pm 4 11 mph 1014.5mb 71f
11:50am 2 9 mph 1014.6mb 68f
10:50am 2 9 mph 1014mb 67f
9:50am 2 4 mph 1013.8mb 68f
8:50am 4 13 mph 1012.9mb 69f
7:50am 7 13 mph 1011.5mb 76f
6:50am 4 9 mph 1010.8mb 76f
5:50am 7 11 mph 1010.1mb 75f
4:50am 7 9 mph 1009.8mb 75f
3:50am 2 4 mph 1009.8mb 73f
2:50am  -  mph 1010.2mb 69f
1:50am  -  2 mph 1010.2mb 69f
12:50am  -  2 mph 1010.3mb 69f
Wed 04/27 11:50pm  -  mph 1010.2mb 69f
10:50pm  -  2 mph 1010mb 70f
9:50pm 2 4 mph 1009.4mb 71f
8:50pm 4 9 mph 1008.7mb 73f
7:50pm 4 9 mph 1008.2mb 73f
6:50pm 7 13 mph 1007.5mb 75f
5:50pm 4 9 mph 1007.1mb 72f
4:50pm  -  4 mph 1007.2mb 69f
3:50pm 2 4 mph 1009.2mb 67f
2:50pm 2
mph
1010.3mb 67f
1:50pm 4 7 mph 1011.1mb 77f
12:50pm 4 9 mph 1011.3mb 79f
11:50am 7 11 mph 1011.3mb 79f
10:50am 9 13 mph 1010.9mb 79f
9:50am 7 11 mph 1010.3mb 78f
8:50am 9 13 mph 1010mb 77f
7:50am 4 9 mph 1009.6mb 75f
6:50am 2 4 mph 1009.5mb 72f
5:50am  -  mph 1009.1mb 71f
4:50am  -  mph 1008.6mb 69f
3:50am  -  2 mph 1008.3mb 68f
2:50am  -  2 mph 1008.1mb 70f
1:50am 2 4 mph 1008.4mb 71f
12:50am 2 4 mph 1009.2mb 71f
Tue 04/26 11:50pm 2 4 mph 1009.8mb 72f
10:50pm 2 4 mph 1010.7mb 71f
9:50pm 2
mph
1011.4mb 71f
8:50pm 2
mph
1010.8mb 72f
7:50pm 4 7 mph 1010.6mb 74f
6:50pm 4 9 mph 1011mb 77f
5:50pm 7 13 mph 1011.1mb 78f
4:50pm 7 13 mph 1011.4mb 80f
3:50pm 9 16 mph 1011.9mb 80f
2:50pm 9 16 mph 1012.5mb 81f
1:50pm 7 13 mph 1013mb 80f
12:50pm 7 13 mph 1013.4mb 80f
11:50am 9 13 mph 1013.8mb 79f
10:50am 7 11 mph 1013.6mb 80f
9:50am 7 11 mph 1013.5mb 78f
8:50am 4 9 mph 1013.4mb 74f
7:50am 2 4 mph 1013.2mb 71f
6:50am  -  mph 1012.7mb 66f
5:50am  -  2 mph 1011.8mb 66f
4:50am  -  mph 1011.8mb 66f
3:50am  -  mph 1011.9mb 67f